createdAt,value
2019-01-12T00:01:25.031Z,100639.72
2019-01-12T00:03:54.607Z,100637.55
2019-01-12T00:06:24.117Z,100642.73
2019-01-12T00:08:53.965Z,100646.56
2019-01-12T00:11:23.502Z,100641.84
2019-01-12T00:13:53.057Z,100638.84
2019-01-12T00:16:22.587Z,100635.79
2019-01-12T00:18:52.152Z,100636.56
2019-01-12T00:21:21.693Z,100652.50
2019-01-12T00:23:51.246Z,100652.86
2019-01-12T00:26:20.774Z,100651.57
2019-01-12T00:28:50.305Z,100644.63
2019-01-12T00:31:19.855Z,100651.11
2019-01-12T00:33:49.386Z,100658.05
2019-01-12T00:36:18.951Z,100646.80
2019-01-12T00:38:48.488Z,100645.46
2019-01-12T00:41:18.195Z,100655.81
2019-01-12T00:43:47.733Z,100654.47
2019-01-12T00:46:17.437Z,100656.59
2019-01-12T00:48:47.012Z,100648.83
2019-01-12T00:51:16.521Z,100649.24
2019-01-12T00:53:46.081Z,100655.25
2019-01-12T00:56:15.683Z,100656.55
2019-01-12T00:58:45.223Z,100656.49
2019-01-12T01:01:15.217Z,100666.38
2019-01-12T01:03:44.751Z,100680.16
2019-01-12T01:06:14.376Z,100671.05
2019-01-12T01:08:43.912Z,100671.05
2019-01-12T01:11:13.465Z,100671.92
2019-01-12T01:13:43.005Z,100680.98
2019-01-12T01:16:12.541Z,100689.22
2019-01-12T01:18:42.095Z,100696.57
2019-01-12T01:21:11.634Z,100694.86
2019-01-12T01:23:41.188Z,100693.98
2019-01-12T01:26:10.720Z,100693.09
2019-01-12T01:28:40.276Z,100696.57
2019-01-12T01:31:09.833Z,100700.40
2019-01-12T01:33:39.377Z,100703.87
2019-01-12T01:36:08.939Z,100694.75
2019-01-12T01:38:38.477Z,100711.17
2019-01-12T01:41:09.973Z,100699.91
2019-01-12T01:43:39.498Z,100714.98
2019-01-12T01:46:09.291Z,100712.75
2019-01-12T01:48:39.100Z,100725.23
2019-01-12T01:51:08.805Z,100720.05
2019-01-12T01:53:38.593Z,100725.58
2019-01-12T01:56:08.131Z,100733.34
2019-01-12T01:58:37.685Z,100733.77
2019-01-12T02:01:07.282Z,100726.41
2019-01-12T02:03:36.845Z,100718.53
2019-01-12T02:06:06.445Z,100730.12
2019-01-12T02:08:35.995Z,100732.17
2019-01-12T02:11:05.712Z,100729.53
2019-01-12T02:13:35.259Z,100736.00
2019-01-12T02:16:04.989Z,100735.95
2019-01-12T02:18:34.523Z,100738.48
2019-01-12T02:21:04.152Z,100735.84
2019-01-12T02:23:33.697Z,100735.78
2019-01-12T02:26:03.238Z,100730.50
2019-01-12T02:28:32.791Z,100721.44
2019-01-12T02:31:02.321Z,100718.36
2019-01-12T02:33:31.887Z,100726.06
2019-01-12T02:36:01.422Z,100729.13
2019-01-12T02:38:30.995Z,100717.06
2019-01-12T02:41:00.527Z,100719.67
2019-01-12T02:43:30.061Z,100714.42
2019-01-12T02:45:59.611Z,100714.37
2019-01-12T02:48:29.151Z,100716.13
2019-01-12T02:50:58.704Z,100720.06
2019-01-12T02:53:28.238Z,100720.53
2019-01-12T02:55:57.944Z,100713.67
2019-01-12T02:58:27.487Z,100716.78
2019-01-12T03:00:57.027Z,100713.31
2019-01-12T03:03:26.589Z,100718.02
2019-01-12T03:05:56.131Z,100705.91
2019-01-12T03:08:25.697Z,100711.09
2019-01-12T03:10:55.263Z,100720.14
2019-01-12T03:13:24.830Z,100713.31
2019-01-12T03:15:54.378Z,100704.20
2019-01-12T03:18:23.913Z,100711.50
2019-01-12T03:20:53.514Z,100709.33
2019-01-12T03:23:23.127Z,100710.59
2019-01-12T03:25:52.764Z,100712.72
2019-01-12T03:28:22.597Z,100701.07
2019-01-12T03:30:52.144Z,100704.13
2019-01-12T03:33:21.706Z,100699.73
2019-01-12T03:35:51.727Z,100703.08
2019-01-12T03:38:21.282Z,100701.27
2019-01-12T03:40:50.898Z,100697.38
2019-01-12T03:43:20.661Z,100694.33
2019-01-12T03:45:51.370Z,100694.63
2019-01-12T03:48:21.040Z,100694.97
2019-01-12T03:50:50.597Z,100696.26
2019-01-12T03:53:20.148Z,100694.55
2019-01-12T03:55:49.781Z,100689.73
2019-01-12T03:58:19.310Z,100684.51
2019-01-12T04:00:48.885Z,100688.39
2019-01-12T04:03:18.427Z,100679.75
2019-01-12T04:05:47.963Z,100684.51
2019-01-12T04:08:19.984Z,100686.21
2019-01-12T04:10:49.520Z,100687.09
2019-01-12T04:13:19.119Z,100678.45
2019-01-12T04:15:48.655Z,100680.11
2019-01-12T04:18:18.225Z,100681.81
2019-01-12T04:20:47.753Z,100680.16
2019-01-12T04:23:17.548Z,100674.94
2019-01-12T04:25:47.113Z,100673.23
2019-01-12T04:28:16.723Z,100675.75
2019-01-12T04:30:46.291Z,100672.28
2019-01-12T04:33:15.881Z,100679.69
2019-01-12T04:35:45.428Z,100670.17
2019-01-12T04:38:14.984Z,100672.40
2019-01-12T04:40:44.530Z,100665.05
2019-01-12T04:43:14.087Z,100662.05
2019-01-12T04:45:43.757Z,100661.64
2019-01-12T04:48:13.309Z,100659.94
2019-01-12T04:50:42.857Z,100664.64
2019-01-12T04:53:12.447Z,100662.52
2019-01-12T04:55:41.973Z,100660.77
2019-01-12T04:58:11.508Z,100664.64
2019-01-12T05:00:41.089Z,100659.94
2019-01-12T05:03:10.633Z,100661.23
2019-01-12T05:05:40.182Z,100657.81
2019-01-12T05:08:09.935Z,100664.75
2019-01-12T05:10:39.478Z,100667.34
2019-01-12T05:13:09.031Z,100666.05
2019-01-12T05:15:38.752Z,100665.58
2019-01-12T05:18:08.291Z,100663.87
2019-01-12T05:20:37.829Z,100673.39
2019-01-12T05:23:07.462Z,100664.80
2019-01-12T05:25:37.006Z,100668.34
2019-01-12T05:28:06.550Z,100661.05
2019-01-12T05:30:36.448Z,100662.77
2019-01-12T05:33:05.999Z,100664.52
2019-01-12T05:35:35.528Z,100664.11
2019-01-12T05:38:05.937Z,100672.70
2019-01-12T05:40:35.487Z,100667.98
2019-01-12T05:43:05.088Z,100666.70
2019-01-12T05:45:34.655Z,100662.41
2019-01-12T05:48:04.335Z,100668.45
2019-01-12T05:50:33.873Z,100659.05
2019-01-12T05:53:03.582Z,100652.62
2019-01-12T05:55:33.446Z,100661.33
2019-01-12T05:58:02.982Z,100667.84
2019-01-12T06:00:32.562Z,100664.91
2019-01-12T06:03:02.100Z,100659.33
2019-01-12T06:05:31.640Z,100653.75
2019-01-12T06:08:01.210Z,100654.27
2019-01-12T06:10:30.758Z,100649.09
2019-01-12T06:13:00.294Z,100655.66
2019-01-12T06:15:29.954Z,100652.66
2019-01-12T06:17:59.489Z,100651.84
2019-01-12T06:20:29.085Z,100662.24
2019-01-12T06:22:58.777Z,100661.36
2019-01-12T06:25:28.312Z,100660.02
2019-01-12T06:27:57.848Z,100662.60
2019-01-12T06:30:27.510Z,100657.48
2019-01-12T06:32:57.114Z,100661.78
2019-01-12T06:35:26.656Z,100660.02
2019-01-12T06:37:56.347Z,100669.48
2019-01-12T06:40:25.934Z,100662.60
2019-01-12T06:42:55.479Z,100661.36
2019-01-12T06:45:25.592Z,100662.19
2019-01-12T06:47:56.845Z,100660.95
2019-01-12T06:50:26.432Z,100661.41
2019-01-12T06:52:55.964Z,100666.23
2019-01-12T06:55:25.506Z,100661.05
2019-01-12T06:57:55.381Z,100661.48
2019-01-12T07:00:24.919Z,100653.72
2019-01-12T07:02:54.452Z,100657.19
2019-01-12T07:05:24.161Z,100655.02
2019-01-12T07:07:53.697Z,100647.72
2019-01-12T07:10:23.235Z,100652.07
2019-01-12T07:12:52.799Z,100660.30
2019-01-12T07:15:22.341Z,100653.47
2019-01-12T07:17:51.882Z,100662.16
2019-01-12T07:20:21.596Z,100657.87
2019-01-12T07:22:51.143Z,100666.52
2019-01-12T07:25:20.685Z,100664.39
2019-01-12T07:27:50.525Z,100652.33
2019-01-12T07:30:21.706Z,100663.56
2019-01-12T07:32:51.384Z,100663.16
2019-01-12T07:35:21.025Z,100655.85
2019-01-12T07:37:51.110Z,100661.91
2019-01-12T07:40:20.649Z,100664.03
2019-01-12T07:42:50.210Z,100663.98
2019-01-12T07:45:19.746Z,100673.87
2019-01-12T07:47:49.298Z,100665.58
2019-01-12T07:50:19.139Z,100669.41
2019-01-12T07:52:48.672Z,100676.61
2019-01-12T07:55:18.213Z,100661.78
2019-01-12T07:57:47.866Z,100655.61
2019-01-12T08:00:20.205Z,100654.16
2019-01-12T08:02:49.815Z,100652.33
2019-01-12T08:05:21.483Z,100648.45
2019-01-12T08:07:51.192Z,100656.20
2019-01-12T08:10:23.046Z,100643.27
2019-01-12T08:12:52.894Z,100642.44
2019-01-12T08:15:22.697Z,100641.27
2019-01-12T08:17:52.474Z,100633.31
2019-01-12T08:20:22.230Z,100631.72
2019-01-12T08:22:51.834Z,100632.81
2019-01-12T08:25:21.371Z,100627.37
2019-01-12T08:27:51.010Z,100628.79
2019-01-12T08:30:20.617Z,100624.49
2019-01-12T08:32:50.170Z,100627.55
2019-01-12T08:35:19.868Z,100628.89
2019-01-12T08:37:49.497Z,100616.78
2019-01-12T08:40:19.028Z,100612.02
2019-01-12T08:42:48.943Z,100610.36
2019-01-12T08:45:18.544Z,100603.05
2019-01-12T08:47:48.088Z,100600.98
2019-01-12T08:50:18.565Z,100597.61
2019-01-12T08:52:48.452Z,100593.37
2019-01-12T08:55:20.126Z,100588.77
2019-01-12T08:57:49.829Z,100586.69
2019-01-12T09:00:20.700Z,100591.91
2019-01-12T09:02:50.307Z,100581.97
2019-01-12T09:05:19.873Z,100574.10
2019-01-12T09:07:49.476Z,100579.59
2019-01-12T09:10:20.020Z,100568.62
2019-01-12T09:12:50.079Z,100568.00
2019-01-12T09:15:19.755Z,100570.48
2019-01-12T09:17:49.382Z,100571.36
2019-01-12T09:20:19.061Z,100553.66
2019-01-12T09:22:48.666Z,100556.25
2019-01-12T09:25:18.298Z,100549.83
2019-01-12T09:27:47.874Z,100543.51
2019-01-12T09:30:19.685Z,100545.78
2019-01-12T09:32:49.770Z,100545.46
2019-01-12T09:35:19.835Z,100547.22
2019-01-12T09:37:58.398Z,100530.34
2019-01-12T09:40:28.019Z,100533.81
2019-01-12T09:42:57.593Z,100533.82
2019-01-12T09:45:27.139Z,100529.52
2019-01-12T09:47:57.133Z,100523.98
2019-01-12T09:50:26.667Z,100530.55
2019-01-12T09:52:56.209Z,100520.75
2019-01-12T09:55:25.775Z,100510.53
2019-01-12T09:57:55.315Z,100510.17
2019-01-12T10:00:25.792Z,100513.73
2019-01-12T10:02:55.355Z,100507.94
2019-01-12T10:05:25.136Z,100494.80
2019-01-12T10:07:54.746Z,100486.02
2019-01-12T10:10:24.588Z,100487.15
2019-01-12T10:12:54.199Z,100483.06
2019-01-12T10:15:23.873Z,100479.06
2019-01-12T10:17:53.456Z,100478.02
2019-01-12T10:20:23.050Z,100474.84
2019-01-12T10:22:52.582Z,100470.61
2019-01-12T10:25:22.214Z,100467.30
2019-01-12T10:27:51.770Z,100466.59
2019-01-12T10:30:24.109Z,100451.25
2019-01-12T10:32:54.031Z,100455.80
2019-01-12T10:35:23.652Z,100452.93
2019-01-12T10:37:53.267Z,100452.97
2019-01-12T10:40:22.903Z,100446.90
2019-01-12T10:42:52.670Z,100452.02
2019-01-12T10:45:23.515Z,100444.54
2019-01-12T10:47:53.856Z,100438.28
2019-01-12T10:50:29.883Z,100438.97
2019-01-12T10:52:59.524Z,100433.23
2019-01-12T10:55:29.241Z,100426.14
2019-01-12T10:57:58.842Z,100418.62
2019-01-12T11:00:32.651Z,100418.00
2019-01-12T11:03:02.193Z,100416.63
2019-01-12T11:05:31.787Z,100411.77
2019-01-12T11:08:01.576Z,100418.22
2019-01-12T11:10:31.253Z,100403.62
2019-01-12T11:13:00.861Z,100414.11
2019-01-12T11:15:30.496Z,100400.55
2019-01-12T11:18:00.100Z,100396.92
2019-01-12T11:20:29.633Z,100392.65
2019-01-12T11:22:59.268Z,100387.88
2019-01-12T11:25:28.803Z,100386.58
2019-01-12T11:27:58.339Z,100386.13
2019-01-12T11:30:27.901Z,100376.63
2019-01-12T11:32:57.430Z,100376.63
2019-01-12T11:35:26.968Z,100360.18
2019-01-12T11:37:56.603Z,100353.73
2019-01-12T11:40:26.275Z,100355.03
2019-01-12T11:42:55.968Z,100343.47
2019-01-12T11:45:25.792Z,100353.05
2019-01-12T11:47:55.327Z,100331.94
2019-01-12T11:50:24.876Z,100335.86
2019-01-12T11:52:54.544Z,100330.29
2019-01-12T11:55:24.091Z,100330.67
2019-01-12T11:57:53.766Z,100326.67
2019-01-12T12:00:29.083Z,100323.52
2019-01-12T12:02:58.829Z,100326.88
2019-01-12T12:05:28.536Z,100312.09
2019-01-12T12:07:58.193Z,100311.98
2019-01-12T12:10:27.942Z,100315.03
2019-01-12T12:12:57.543Z,100306.52
2019-01-12T12:15:27.237Z,100298.94
2019-01-12T12:17:56.843Z,100284.45
2019-01-12T12:20:26.919Z,100273.85
2019-01-12T12:22:56.651Z,100276.52
2019-01-12T12:25:26.264Z,100267.00
2019-01-12T12:27:55.809Z,100255.36
2019-01-12T12:30:28.071Z,100254.48
2019-01-12T12:32:57.776Z,100244.55
2019-01-12T12:35:27.313Z,100232.84
2019-01-12T12:37:57.499Z,100234.98
2019-01-12T12:40:27.468Z,100229.80
2019-01-12T12:42:57.002Z,100225.91
2019-01-12T12:45:31.183Z,100215.91
2019-01-12T12:48:00.721Z,100217.23
2019-01-12T12:50:30.418Z,100216.00
2019-01-12T12:53:00.161Z,100203.09
2019-01-12T12:55:29.688Z,100201.00
2019-01-12T12:58:00.927Z,100192.41
2019-01-12T13:00:31.336Z,100194.14
2019-01-12T13:03:00.933Z,100193.75
2019-01-12T13:05:30.476Z,100175.13
2019-01-12T13:08:00.044Z,100185.06
2019-01-12T13:10:30.216Z,100169.46
2019-01-12T13:12:59.885Z,100165.51
2019-01-12T13:15:29.621Z,100166.23
2019-01-12T13:17:59.297Z,100166.99
2019-01-12T13:20:28.974Z,100170.80
2019-01-12T13:22:58.549Z,100165.13
2019-01-12T13:25:29.566Z,100159.88
2019-01-12T13:27:59.311Z,100159.03
2019-01-12T13:30:29.727Z,100145.20
2019-01-12T13:32:59.332Z,100144.88
2019-01-12T13:35:29.119Z,100144.09
2019-01-12T13:37:59.388Z,100143.27
2019-01-12T13:40:29.023Z,100129.39
2019-01-12T13:42:59.217Z,100131.90
2019-01-12T13:45:29.044Z,100127.95
2019-01-12T13:47:58.581Z,100120.95
2019-01-12T13:50:28.256Z,100109.98
2019-01-12T13:52:58.532Z,100107.23
2019-01-12T13:55:28.055Z,100103.58
2019-01-12T13:57:57.594Z,100102.45
2019-01-12T14:00:33.520Z,100098.44
2019-01-12T14:03:03.767Z,100095.72
2019-01-12T14:05:33.367Z,100088.20
2019-01-12T14:08:03.237Z,100081.14
2019-01-12T14:10:32.835Z,100082.37
2019-01-12T14:13:02.371Z,100077.54
2019-01-12T14:15:32.010Z,100071.83
2019-01-12T14:18:01.562Z,100079.47
2019-01-12T14:20:34.605Z,100066.38
2019-01-12T14:23:04.298Z,100061.90
2019-01-12T14:25:33.904Z,100055.22
2019-01-12T14:28:03.752Z,100050.77
2019-01-12T14:30:33.424Z,100047.20
2019-01-12T14:33:03.032Z,100045.80
2019-01-12T14:35:32.575Z,100043.17
2019-01-12T14:38:02.604Z,100033.16
2019-01-12T14:40:32.143Z,100034.84
2019-01-12T14:43:01.682Z,100030.05
2019-01-12T14:45:31.998Z,100023.50
2019-01-12T14:48:01.600Z,100017.41
2019-01-12T14:50:31.239Z,100008.73
2019-01-12T14:53:01.304Z,100019.05
2019-01-12T14:55:30.934Z,100006.50
2019-01-12T14:58:02.594Z,99998.70
2019-01-12T15:00:31.902Z,99990.83
2019-01-12T15:03:01.412Z,99987.29
2019-01-12T15:05:31.238Z,99975.57
2019-01-12T15:08:01.021Z,99974.62
2019-01-12T15:10:30.903Z,99977.17
2019-01-12T15:13:00.439Z,99965.91
2019-01-12T15:15:29.992Z,99958.12
2019-01-12T15:17:59.591Z,99952.94
2019-01-12T15:20:30.426Z,99948.14
2019-01-12T15:23:00.379Z,99952.87
2019-01-12T15:25:29.909Z,99935.14
2019-01-12T15:28:00.248Z,99945.45
2019-01-12T15:30:30.718Z,99928.60
2019-01-12T15:33:00.620Z,99928.14
2019-01-12T15:35:32.150Z,99928.95
2019-01-12T15:38:02.007Z,99922.90
2019-01-12T15:40:31.557Z,99917.73
2019-01-12T15:43:01.093Z,99907.38
2019-01-12T15:45:31.419Z,99912.97
2019-01-12T15:48:00.946Z,99900.88
2019-01-12T15:50:30.568Z,99899.97
2019-01-12T15:53:01.557Z,99901.64
2019-01-12T15:55:31.345Z,99893.88
2019-01-12T15:58:00.896Z,99891.30
2019-01-12T16:00:30.524Z,99883.95
2019-01-12T16:03:00.127Z,99879.20
2019-01-12T16:05:29.804Z,99881.79
2019-01-12T16:07:59.503Z,99876.58
2019-01-12T16:10:29.110Z,99867.95
2019-01-12T16:12:58.710Z,99869.24
2019-01-12T16:15:28.782Z,99858.48
2019-01-12T16:17:58.325Z,99857.22
2019-01-12T16:20:32.176Z,99848.17
2019-01-12T16:23:01.811Z,99837.83
2019-01-12T16:25:31.411Z,99830.98
2019-01-12T16:28:00.956Z,99833.14
2019-01-12T16:30:30.534Z,99823.22
2019-01-12T16:33:00.073Z,99826.22
2019-01-12T16:35:29.604Z,99828.39
2019-01-12T16:37:59.225Z,99824.51
2019-01-12T16:40:28.998Z,99817.20
2019-01-12T16:42:58.547Z,99803.86
2019-01-12T16:45:28.179Z,99806.02
2019-01-12T16:47:57.722Z,99812.06
2019-01-12T16:50:27.324Z,99796.52
2019-01-12T16:52:57.211Z,99803.86
2019-01-12T16:55:26.882Z,99793.48
2019-01-12T16:57:56.422Z,99782.30
2019-01-12T17:00:28.674Z,99777.58
2019-01-12T17:02:58.367Z,99773.73
2019-01-12T17:05:27.972Z,99762.13
2019-01-12T17:07:57.549Z,99769.04
2019-01-12T17:10:27.308Z,99759.53
2019-01-12T17:12:56.844Z,99765.16
2019-01-12T17:15:26.659Z,99768.16
2019-01-12T17:17:56.199Z,99764.73
2019-01-12T17:20:26.972Z,99757.82
2019-01-12T17:22:59.391Z,99753.91
2019-01-12T17:25:28.999Z,99750.87
2019-01-12T17:27:58.606Z,99754.75
2019-01-12T17:30:28.246Z,99748.28
2019-01-12T17:32:57.921Z,99747.83
2019-01-12T17:35:27.527Z,99740.98
2019-01-12T17:37:57.320Z,99748.31
2019-01-12T17:40:27.878Z,99733.25
2019-01-12T17:42:57.484Z,99723.00
2019-01-12T17:45:27.392Z,99725.58
2019-01-12T17:47:56.930Z,99729.10
2019-01-12T17:50:26.966Z,99726.09
2019-01-12T17:52:56.682Z,99724.44
2019-01-12T17:55:26.851Z,99727.03
2019-01-12T17:57:56.726Z,99723.15
2019-01-12T18:00:29.440Z,99732.69
2019-01-12T18:02:58.979Z,99719.78
2019-01-12T18:05:28.512Z,99724.56
2019-01-12T18:07:58.088Z,99733.65
2019-01-12T18:10:27.658Z,99722.03
2019-01-12T18:12:57.174Z,99731.58
2019-01-12T18:15:26.736Z,99724.69
2019-01-12T18:17:56.348Z,99732.44
2019-01-12T18:20:25.907Z,99729.49
2019-01-12T18:22:55.999Z,99732.11
2019-01-12T18:25:25.535Z,99729.16
2019-01-12T18:27:56.356Z,99728.73
2019-01-12T18:30:26.981Z,99730.91
2019-01-12T18:32:56.666Z,99733.52
2019-01-12T18:35:26.198Z,99729.25
2019-01-12T18:37:55.774Z,99728.82
2019-01-12T18:40:25.321Z,99725.42
2019-01-12T18:42:54.862Z,99723.28
2019-01-12T18:45:24.506Z,99727.67
2019-01-12T18:47:54.114Z,99725.95
2019-01-12T18:50:26.357Z,99720.41
2019-01-12T18:52:56.567Z,99722.16
2019-01-12T18:55:26.129Z,99719.14
2019-01-12T18:57:56.083Z,99717.85
2019-01-12T19:00:28.686Z,99713.97
2019-01-12T19:02:58.309Z,99710.50
2019-01-12T19:05:28.357Z,99708.36
2019-01-12T19:07:57.994Z,99708.39
2019-01-12T19:10:27.551Z,99706.28
2019-01-12T19:12:57.416Z,99707.59
2019-01-12T19:15:28.866Z,99703.30
2019-01-12T19:17:58.480Z,99693.80
2019-01-12T19:20:28.031Z,99692.48
2019-01-12T19:22:57.666Z,99694.67
2019-01-12T19:25:27.276Z,99700.76
2019-01-12T19:27:56.884Z,99698.62
2019-01-12T19:30:26.462Z,99693.04
2019-01-12T19:32:56.068Z,99696.95
2019-01-12T19:35:25.891Z,99688.75
2019-01-12T19:37:55.420Z,99687.48
2019-01-12T19:40:25.016Z,99686.64
2019-01-12T19:42:54.612Z,99696.60
2019-01-12T19:45:24.299Z,99694.46
2019-01-12T19:47:53.820Z,99691.89
2019-01-12T19:50:25.421Z,99685.06
2019-01-12T19:52:55.534Z,99688.13
2019-01-12T19:55:25.141Z,99688.98
2019-01-12T19:57:54.689Z,99681.23
2019-01-12T20:00:29.421Z,99686.89
2019-01-12T20:02:59.096Z,99692.09
2019-01-12T20:05:28.715Z,99681.34
2019-01-12T20:07:58.373Z,99685.70
2019-01-12T20:10:27.987Z,99676.66
2019-01-12T20:12:57.589Z,99676.67
2019-01-12T20:15:27.152Z,99673.66
2019-01-12T20:17:56.711Z,99671.91
2019-01-12T20:20:26.252Z,99672.36
2019-01-12T20:22:56.150Z,99671.06
2019-01-12T20:25:28.294Z,99665.87
2019-01-12T20:27:57.970Z,99660.72
2019-01-12T20:30:40.377Z,99658.55
2019-01-12T20:33:17.851Z,99661.17
2019-01-12T20:35:54.835Z,99654.25
2019-01-12T20:38:31.571Z,99649.48
2019-01-12T20:41:37.197Z,99649.06
2019-01-12T20:44:26.309Z,99651.66
2019-01-12T20:47:03.272Z,99646.48
2019-01-12T20:49:37.537Z,99651.66
2019-01-12T20:52:28.622Z,99648.19
2019-01-12T20:55:23.537Z,99648.62
2019-01-12T20:58:09.458Z,99647.75
2019-01-12T21:01:06.611Z,99649.05
2019-01-12T21:04:04.396Z,99635.20
2019-01-12T21:06:50.334Z,99641.23
2019-01-12T21:10:14.667Z,99632.59
2019-01-12T21:13:13.962Z,99628.68
2019-01-12T21:15:48.238Z,99632.97
2019-01-12T21:18:17.770Z,99627.78
2019-01-12T21:20:47.310Z,99629.08
2019-01-12T21:23:16.877Z,99627.36
2019-01-12T21:25:46.416Z,99630.83
2019-01-12T21:28:15.971Z,99625.63
2019-01-12T21:30:45.510Z,99618.70
2019-01-12T21:33:15.131Z,99615.69
2019-01-12T21:35:44.749Z,99619.14
2019-01-12T21:38:14.327Z,99608.72
2019-01-12T21:40:43.886Z,99611.72
2019-01-12T21:43:13.494Z,99610.82
2019-01-12T21:45:43.158Z,99606.06
2019-01-12T21:48:12.810Z,99597.79
2019-01-12T21:50:43.169Z,99605.56
2019-01-12T21:53:13.185Z,99608.12
2019-01-12T21:55:42.738Z,99602.52
2019-01-12T21:58:12.409Z,99610.30
2019-01-12T22:00:42.149Z,99596.47
2019-01-12T22:03:11.923Z,99592.59
2019-01-12T22:05:41.477Z,99597.79
2019-01-12T22:08:11.294Z,99586.56
2019-01-12T22:10:41.111Z,99594.33
2019-01-12T22:13:10.729Z,99593.86
2019-01-12T22:15:40.274Z,99597.33
2019-01-12T22:18:09.941Z,99590.88
2019-01-12T22:20:39.485Z,99586.56
2019-01-12T22:23:09.103Z,99583.97
2019-01-12T22:25:38.724Z,99589.13
2019-01-12T22:28:08.349Z,99589.95
2019-01-12T22:30:37.912Z,99583.87
2019-01-12T22:33:07.614Z,99579.89
2019-01-12T22:35:37.254Z,99578.17
2019-01-12T22:38:06.812Z,99577.77
2019-01-12T22:40:36.494Z,99575.63
2019-01-12T22:43:06.156Z,99574.33
2019-01-12T22:45:35.746Z,99571.30
2019-01-12T22:48:05.377Z,99575.63
2019-01-12T22:50:34.915Z,99570.42
2019-01-12T22:53:04.637Z,99570.45
2019-01-12T22:55:35.479Z,99569.18
2019-01-12T22:58:05.715Z,99561.86
2019-01-12T23:01:00.781Z,99555.81
2019-01-12T23:03:30.527Z,99560.55
2019-01-12T23:06:00.075Z,99553.25
2019-01-12T23:08:29.714Z,99550.23
2019-01-12T23:10:59.499Z,99547.65
2019-01-12T23:13:29.121Z,99551.53
2019-01-12T23:15:58.671Z,99544.61
2019-01-12T23:18:28.245Z,99536.42
2019-01-12T23:20:57.879Z,99536.41
2019-01-12T23:23:27.424Z,99527.77
2019-01-12T23:25:56.968Z,99528.17
2019-01-12T23:28:26.615Z,99531.16
2019-01-12T23:30:56.185Z,99523.84
2019-01-12T23:33:25.879Z,99526.01
2019-01-12T23:35:55.439Z,99526.03
2019-01-12T23:38:25.138Z,99526.48
2019-01-12T23:40:54.686Z,99511.81
2019-01-12T23:43:24.301Z,99520.88
2019-01-12T23:45:53.976Z,99526.09
2019-01-12T23:48:23.539Z,99517.45
2019-01-12T23:50:53.146Z,99520.93
2019-01-12T23:53:22.776Z,99514.03
2019-01-12T23:55:52.433Z,99510.59
2019-01-12T23:58:21.986Z,99512.33
